createdAt,value
2023-04-24T00:01:04.024Z,1.40
2023-04-24T00:03:34.090Z,1.00
2023-04-24T00:06:03.576Z,1.15
2023-04-24T00:08:33.512Z,1.00
2023-04-24T00:11:02.150Z,1.10
2023-04-24T00:13:30.868Z,1.10
2023-04-24T00:15:59.600Z,1.20
2023-04-24T00:18:28.144Z,1.30
2023-04-24T00:20:56.777Z,1.30
2023-04-24T00:23:25.759Z,1.30
2023-04-24T00:25:55.932Z,1.25
2023-04-24T00:28:24.422Z,1.25
2023-04-24T00:30:53.181Z,1.20
2023-04-24T00:33:21.858Z,1.40
2023-04-24T00:35:50.364Z,1.20
2023-04-24T00:38:18.902Z,1.48
2023-04-24T00:40:48.787Z,1.40
2023-04-24T00:43:18.716Z,1.35
2023-04-24T00:45:47.359Z,1.30
2023-04-24T00:48:16.903Z,1.30
2023-04-24T00:50:45.723Z,1.40
2023-04-24T00:53:16.491Z,1.20
2023-04-24T00:55:45.244Z,1.45
2023-04-24T00:58:14.456Z,1.45
2023-04-24T01:00:46.052Z,1.50
2023-04-24T01:03:15.778Z,1.63
2023-04-24T01:05:44.816Z,1.60
2023-04-24T01:08:13.452Z,1.40
2023-04-24T01:10:43.360Z,1.60
2023-04-24T01:13:12.436Z,1.60
2023-04-24T01:15:41.213Z,1.40
2023-04-24T01:18:11.500Z,1.77
2023-04-24T01:20:42.395Z,1.73
2023-04-24T01:23:12.801Z,1.58
2023-04-24T01:25:41.542Z,1.77
2023-04-24T01:28:10.666Z,1.80
2023-04-24T01:30:40.800Z,2.00
2023-04-24T01:33:09.778Z,2.60
2023-04-24T01:35:39.298Z,2.47
2023-04-24T01:38:07.985Z,2.40
2023-04-24T01:40:40.043Z,2.75
2023-04-24T01:43:08.791Z,3.00
2023-04-24T01:45:37.388Z,2.67
2023-04-24T01:48:06.690Z,3.28
2023-04-24T01:50:35.316Z,3.53
2023-04-24T01:53:06.017Z,4.00
2023-04-24T01:55:35.354Z,3.58
2023-04-24T01:58:05.341Z,3.83
2023-04-24T02:00:34.037Z,3.80
2023-04-24T02:03:03.235Z,3.42
2023-04-24T02:05:31.979Z,4.22
2023-04-24T02:08:00.978Z,3.60
2023-04-24T02:10:29.531Z,3.75
2023-04-24T02:12:58.027Z,3.50
2023-04-24T02:15:28.284Z,3.85
2023-04-24T02:17:56.889Z,3.88
2023-04-24T02:20:26.426Z,4.80
2023-04-24T02:22:56.082Z,5.55
2023-04-24T02:25:24.841Z,5.05
2023-04-24T02:27:55.987Z,4.25
2023-04-24T02:30:24.584Z,4.70
2023-04-24T02:32:54.656Z,4.53
2023-04-24T02:35:23.226Z,4.68
2023-04-24T02:37:51.797Z,4.35
2023-04-24T02:40:20.402Z,4.32
2023-04-24T02:42:49.348Z,4.03
2023-04-24T02:45:19.491Z,4.22
2023-04-24T02:47:48.410Z,5.57
2023-04-24T02:50:18.499Z,5.40
2023-04-24T02:52:47.089Z,5.20
2023-04-24T02:55:15.976Z,4.95
2023-04-24T02:57:44.600Z,4.65
2023-04-24T03:00:14.631Z,5.15
2023-04-24T03:02:43.430Z,5.07
2023-04-24T03:05:12.945Z,4.88
2023-04-24T03:07:42.925Z,5.22
2023-04-24T03:10:11.929Z,5.88
2023-04-24T03:12:40.458Z,6.15
2023-04-24T03:15:10.359Z,5.70
2023-04-24T03:17:39.488Z,5.35
2023-04-24T03:20:10.230Z,5.05
2023-04-24T03:22:39.682Z,5.10
2023-04-24T03:25:11.867Z,5.38
2023-04-24T03:27:41.227Z,6.13
2023-04-24T03:30:30.488Z,5.60
2023-04-24T03:33:01.779Z,5.18
2023-04-24T03:35:34.095Z,5.60
2023-04-24T03:38:06.328Z,5.75
2023-04-24T03:40:59.682Z,5.95
2023-04-24T03:43:48.500Z,6.25
2023-04-24T03:46:18.026Z,5.55
2023-04-24T03:48:53.538Z,5.38
2023-04-24T03:51:25.357Z,5.80
2023-04-24T03:53:57.587Z,5.85
2023-04-24T03:56:29.931Z,5.35
2023-04-24T03:58:58.531Z,5.70
2023-04-24T04:01:27.101Z,5.20
2023-04-24T04:04:01.604Z,5.30
2023-04-24T04:06:32.813Z,5.72
2023-04-24T04:09:02.790Z,5.18
2023-04-24T04:11:33.135Z,4.70
2023-04-24T04:14:01.711Z,5.85
2023-04-24T04:16:30.912Z,5.65
2023-04-24T04:19:05.078Z,6.07
2023-04-24T04:21:33.699Z,5.82
2023-04-24T04:24:13.726Z,5.40
2023-04-24T04:26:48.076Z,5.75
2023-04-24T04:29:25.287Z,5.97
2023-04-24T04:31:56.248Z,5.35
2023-04-24T04:34:25.270Z,5.75
2023-04-24T04:36:54.699Z,6.35
2023-04-24T04:39:42.793Z,6.03
2023-04-24T04:42:21.566Z,5.55
2023-04-24T04:44:51.372Z,5.00
2023-04-24T04:47:24.602Z,5.32
2023-04-24T04:49:54.982Z,5.68
2023-04-24T04:52:27.680Z,5.57
2023-04-24T04:55:14.363Z,5.72
2023-04-24T04:58:03.647Z,5.30
2023-04-24T05:00:36.636Z,5.15
2023-04-24T05:03:20.894Z,4.70
2023-04-24T05:05:55.734Z,5.30
2023-04-24T05:08:30.282Z,6.15
2023-04-24T05:10:59.579Z,5.93
2023-04-24T05:13:39.324Z,4.80
2023-04-24T05:16:22.556Z,5.80
2023-04-24T05:18:53.166Z,5.20
2023-04-24T05:21:26.244Z,5.60
2023-04-24T05:23:54.838Z,4.90
2023-04-24T05:26:43.840Z,4.60
2023-04-24T05:29:15.259Z,4.70
2023-04-24T05:31:44.960Z,4.75
2023-04-24T05:34:14.124Z,5.28
2023-04-24T05:36:46.550Z,5.20
2023-04-24T05:39:16.123Z,5.35
2023-04-24T05:41:45.476Z,5.50
2023-04-24T05:44:15.630Z,5.38
2023-04-24T05:46:44.448Z,5.68
2023-04-24T05:49:14.034Z,4.82
2023-04-24T05:51:42.874Z,5.53
2023-04-24T05:54:13.689Z,5.00
2023-04-24T05:56:43.333Z,5.05
2023-04-24T05:59:16.551Z,4.93
2023-04-24T06:01:45.755Z,4.95
2023-04-24T06:04:19.641Z,4.55
2023-04-24T06:06:51.753Z,4.45
2023-04-24T06:09:20.692Z,5.10
2023-04-24T06:11:49.241Z,4.78
2023-04-24T06:14:19.183Z,5.25
2023-04-24T06:17:06.681Z,4.90
2023-04-24T06:19:39.658Z,5.03
2023-04-24T06:22:10.362Z,4.75
2023-04-24T06:24:39.670Z,4.57
2023-04-24T06:27:08.693Z,5.05
2023-04-24T06:29:39.162Z,4.75
2023-04-24T06:32:08.916Z,4.75
2023-04-24T06:34:37.921Z,4.78
2023-04-24T06:37:06.530Z,4.45
2023-04-24T06:39:34.981Z,4.30
2023-04-24T06:42:03.524Z,4.18
2023-04-24T06:44:41.940Z,4.15
2023-04-24T06:47:14.587Z,4.25
2023-04-24T06:49:44.967Z,3.65
2023-04-24T06:52:13.804Z,4.07
2023-04-24T06:54:43.846Z,3.97
2023-04-24T06:57:12.609Z,3.88
2023-04-24T06:59:41.365Z,4.07
2023-04-24T07:02:10.342Z,3.40
2023-04-24T07:04:40.863Z,3.53
2023-04-24T07:07:10.548Z,3.60
2023-04-24T07:09:39.740Z,4.13
2023-04-24T07:12:08.287Z,3.83
2023-04-24T07:14:36.817Z,3.63
2023-04-24T07:17:05.628Z,3.42
2023-04-24T07:19:35.494Z,3.30
2023-04-24T07:22:05.416Z,3.10
2023-04-24T07:24:35.120Z,2.80
2023-04-24T07:27:04.183Z,3.28
2023-04-24T07:29:32.588Z,3.17
2023-04-24T07:32:03.925Z,3.17
2023-04-24T07:34:32.660Z,3.22
2023-04-24T07:37:01.248Z,3.55
2023-04-24T07:39:31.286Z,2.70
2023-04-24T07:42:00.825Z,2.05
2023-04-24T07:44:29.271Z,1.80
2023-04-24T07:46:58.464Z,1.75
2023-04-24T07:49:26.997Z,1.25
2023-04-24T07:51:55.486Z,1.10
2023-04-24T07:54:24.163Z,1.17
2023-04-24T07:56:53.893Z,1.15
2023-04-24T07:59:22.267Z,1.00
2023-04-24T08:01:50.901Z,1.10
2023-04-24T08:04:19.987Z,1.02
2023-04-24T08:06:49.376Z,0.98
2023-04-24T08:09:17.704Z,0.90
2023-04-24T08:11:52.113Z,1.25
2023-04-24T08:14:25.252Z,1.02
2023-04-24T08:16:56.481Z,1.00
2023-04-24T08:19:25.071Z,1.02
2023-04-24T08:21:55.046Z,1.00
2023-04-24T08:24:26.947Z,1.15
2023-04-24T08:26:57.761Z,1.10
2023-04-24T08:29:28.531Z,1.10
2023-04-24T08:31:57.833Z,1.20
2023-04-24T08:34:26.434Z,1.08
2023-04-24T08:36:54.878Z,1.20
2023-04-24T08:39:23.224Z,1.05
2023-04-24T08:41:54.599Z,1.13
2023-04-24T08:44:23.404Z,1.00
2023-04-24T08:46:55.827Z,1.10
2023-04-24T08:49:26.787Z,1.05
2023-04-24T08:51:55.612Z,1.13
2023-04-24T08:54:24.114Z,1.00
2023-04-24T08:56:55.800Z,1.20
2023-04-24T08:59:25.916Z,1.13
2023-04-24T09:01:58.154Z,1.08
2023-04-24T09:04:31.421Z,1.00
2023-04-24T09:07:00.660Z,1.30
2023-04-24T09:09:32.873Z,1.50
2023-04-24T09:12:02.351Z,1.40
2023-04-24T09:14:32.935Z,2.17
2023-04-24T09:17:02.976Z,2.50
2023-04-24T09:19:31.775Z,2.70
2023-04-24T09:22:00.245Z,3.03
2023-04-24T09:24:28.864Z,2.78
2023-04-24T09:27:00.133Z,3.72
2023-04-24T09:29:29.441Z,3.20
2023-04-24T09:31:59.027Z,4.00
2023-04-24T09:34:33.202Z,4.35
2023-04-24T09:37:01.790Z,3.88
2023-04-24T09:39:30.382Z,3.88
2023-04-24T09:42:01.019Z,3.70
2023-04-24T09:44:30.428Z,4.28
2023-04-24T09:47:02.060Z,4.43
2023-04-24T09:49:34.317Z,4.30
2023-04-24T09:52:11.887Z,4.55
2023-04-24T09:54:41.756Z,4.47
2023-04-24T09:57:11.521Z,4.45
2023-04-24T09:59:45.350Z,4.75
2023-04-24T10:02:20.906Z,4.85
2023-04-24T10:05:01.097Z,5.68
2023-04-24T10:07:34.628Z,5.60
2023-04-24T10:10:04.101Z,5.30
2023-04-24T10:12:33.074Z,5.82
2023-04-24T10:15:06.774Z,5.50
2023-04-24T10:17:39.135Z,5.28
2023-04-24T10:20:11.262Z,5.57
2023-04-24T10:22:42.164Z,5.57
2023-04-24T10:25:12.176Z,6.03
2023-04-24T10:27:42.203Z,5.47
2023-04-24T10:30:14.363Z,5.63
2023-04-24T10:32:43.956Z,5.40
2023-04-24T10:35:24.183Z,4.85
2023-04-24T10:38:05.435Z,4.95
2023-04-24T10:40:37.631Z,4.22
2023-04-24T10:43:09.516Z,4.45
2023-04-24T10:45:41.532Z,4.50
2023-04-24T10:48:15.350Z,5.05
2023-04-24T10:50:48.912Z,4.75
2023-04-24T10:53:21.117Z,4.88
2023-04-24T10:55:54.465Z,5.07
2023-04-24T10:58:25.346Z,4.78
2023-04-24T11:00:59.661Z,5.07
2023-04-24T11:03:31.224Z,4.78
2023-04-24T11:06:06.207Z,4.85
2023-04-24T11:08:49.373Z,5.55
2023-04-24T11:11:22.012Z,5.05
2023-04-24T11:14:12.226Z,6.03
2023-04-24T11:16:53.378Z,7.43
2023-04-24T11:19:30.974Z,6.75
2023-04-24T11:22:04.757Z,7.70
2023-04-24T11:24:40.024Z,7.10
2023-04-24T11:27:18.338Z,7.95
2023-04-24T11:29:50.241Z,7.65
2023-04-24T11:32:28.682Z,7.57
2023-04-24T11:35:03.100Z,7.55
2023-04-24T11:37:38.580Z,6.88
2023-04-24T11:40:10.547Z,6.13
2023-04-24T11:42:40.056Z,5.40
2023-04-24T11:45:14.939Z,5.00
2023-04-24T11:47:45.816Z,4.93
2023-04-24T11:50:17.960Z,4.50
2023-04-24T11:52:50.771Z,5.03
2023-04-24T11:55:29.631Z,5.00
2023-04-24T11:58:01.414Z,5.35
2023-04-24T12:00:36.865Z,5.03
2023-04-24T12:03:08.203Z,4.55
2023-04-24T12:05:38.017Z,4.80
2023-04-24T12:08:08.484Z,4.45
2023-04-24T12:10:38.413Z,4.53
2023-04-24T12:13:06.936Z,4.10
2023-04-24T12:15:35.490Z,4.10
2023-04-24T12:18:05.545Z,3.88
2023-04-24T12:20:34.857Z,4.22
2023-04-24T12:23:06.350Z,3.50
2023-04-24T12:25:36.684Z,3.08
2023-04-24T12:28:12.923Z,3.13
2023-04-24T12:30:45.278Z,3.40
2023-04-24T12:33:14.049Z,3.28
2023-04-24T12:35:43.271Z,2.90
2023-04-24T12:38:13.843Z,3.35
2023-04-24T12:40:45.024Z,3.25
2023-04-24T12:43:17.846Z,2.97
2023-04-24T12:45:46.410Z,3.03
2023-04-24T12:48:15.682Z,3.00
2023-04-24T12:50:46.395Z,2.88
2023-04-24T12:53:16.424Z,3.47
2023-04-24T12:55:48.135Z,2.92
2023-04-24T12:58:16.772Z,3.53
2023-04-24T13:00:46.790Z,3.35
2023-04-24T13:03:15.782Z,3.20
2023-04-24T13:05:45.166Z,2.90
2023-04-24T13:08:14.313Z,2.60
2023-04-24T13:10:42.903Z,2.28
2023-04-24T13:13:14.340Z,2.45
2023-04-24T13:15:42.879Z,1.85
2023-04-24T13:18:11.408Z,2.20
2023-04-24T13:20:41.663Z,2.28
2023-04-24T13:23:10.296Z,2.10
2023-04-24T13:25:40.343Z,2.03
2023-04-24T13:28:10.372Z,2.00
2023-04-24T13:30:40.611Z,2.10
2023-04-24T13:33:11.857Z,2.03
2023-04-24T13:35:40.383Z,2.00
2023-04-24T13:38:10.641Z,2.42
2023-04-24T13:40:39.426Z,1.90
2023-04-24T13:43:07.944Z,1.90
2023-04-24T13:45:36.310Z,2.13
2023-04-24T13:48:06.846Z,2.00
2023-04-24T13:50:35.413Z,1.85
2023-04-24T13:53:04.572Z,1.70
2023-04-24T13:55:33.074Z,1.73
2023-04-24T13:58:02.555Z,1.83
2023-04-24T14:00:32.014Z,1.55
2023-04-24T14:03:00.738Z,1.40
2023-04-24T14:05:30.856Z,1.58
2023-04-24T14:07:59.338Z,1.63
2023-04-24T14:10:28.376Z,1.77
2023-04-24T14:12:56.798Z,1.70
2023-04-24T14:15:26.637Z,1.60
2023-04-24T14:17:55.291Z,1.83
2023-04-24T14:20:25.078Z,1.70
2023-04-24T14:22:55.414Z,1.73
2023-04-24T14:25:24.048Z,1.70
2023-04-24T14:27:53.336Z,1.67
2023-04-24T14:30:21.787Z,1.77
2023-04-24T14:32:50.736Z,1.75
2023-04-24T14:35:19.421Z,1.70
2023-04-24T14:37:49.409Z,1.50
2023-04-24T14:40:48.587Z,1.60
2023-04-24T14:43:10.894Z,1.90
2023-04-24T14:45:41.188Z,1.70
2023-04-24T14:48:12.290Z,1.50
2023-04-24T14:50:40.711Z,1.42
2023-04-24T14:53:09.178Z,1.50
2023-04-24T14:55:39.140Z,1.65
2023-04-24T14:58:09.156Z,1.75
2023-04-24T15:00:37.752Z,1.65
2023-04-24T15:03:06.774Z,1.90
2023-04-24T15:05:36.104Z,1.73
2023-04-24T15:08:04.708Z,1.40
2023-04-24T15:10:33.161Z,1.88
2023-04-24T15:13:03.107Z,1.60
2023-04-24T15:15:31.706Z,1.73
2023-04-24T15:18:00.183Z,1.80
2023-04-24T15:20:28.968Z,1.70
2023-04-24T15:22:57.527Z,1.60
2023-04-24T15:25:26.553Z,1.80
2023-04-24T15:27:55.242Z,1.35
2023-04-24T15:30:25.394Z,1.80
2023-04-24T15:32:53.877Z,1.60
2023-04-24T15:35:22.385Z,1.65
2023-04-24T15:37:50.852Z,1.70
2023-04-24T15:40:19.365Z,1.83
2023-04-24T15:42:48.308Z,1.80
2023-04-24T15:45:16.923Z,1.70
2023-04-24T15:47:48.037Z,1.80
2023-04-24T15:50:17.520Z,1.70
2023-04-24T15:52:46.497Z,1.92
2023-04-24T15:55:15.070Z,1.83
2023-04-24T15:57:44.372Z,1.70
2023-04-24T16:00:15.288Z,1.77
2023-04-24T16:02:43.762Z,1.70
2023-04-24T16:05:13.897Z,1.50
2023-04-24T16:07:42.493Z,1.30
2023-04-24T16:10:12.047Z,1.55
2023-04-24T16:12:40.820Z,1.80
2023-04-24T16:15:10.178Z,1.60
2023-04-24T16:17:38.773Z,1.48
2023-04-24T16:20:08.692Z,1.60
2023-04-24T16:22:40.494Z,1.60
2023-04-24T16:25:10.119Z,1.90
2023-04-24T16:27:39.237Z,1.75
2023-04-24T16:30:10.649Z,1.50
2023-04-24T16:32:39.513Z,1.60
2023-04-24T16:35:08.751Z,1.83
2023-04-24T16:37:39.003Z,1.80
2023-04-24T16:40:10.984Z,1.63
2023-04-24T16:42:40.457Z,1.65
2023-04-24T16:45:10.467Z,1.58
2023-04-24T16:47:39.074Z,1.40
2023-04-24T16:50:08.379Z,1.60
2023-04-24T16:52:38.414Z,1.70
2023-04-24T16:55:08.887Z,1.63
2023-04-24T16:57:37.516Z,1.67
2023-04-24T17:00:07.979Z,1.50
2023-04-24T17:02:37.802Z,1.60
2023-04-24T17:05:13.074Z,1.40
2023-04-24T17:10:11.947Z,1.30
2023-04-24T17:12:40.483Z,1.40
2023-04-24T17:15:09.549Z,1.40
2023-04-24T17:17:38.332Z,1.30
2023-04-24T17:20:18.650Z,1.42
2023-04-24T17:22:51.914Z,1.40
2023-04-24T17:25:21.182Z,1.60
2023-04-24T17:27:49.838Z,1.38
2023-04-24T17:30:18.683Z,1.40
2023-04-24T17:32:47.511Z,1.60
2023-04-24T17:35:16.481Z,1.50
2023-04-24T17:37:45.104Z,1.52
2023-04-24T17:40:15.270Z,1.38
2023-04-24T17:42:43.824Z,1.60
2023-04-24T17:45:13.434Z,1.30
2023-04-24T17:47:42.443Z,1.50
2023-04-24T17:50:11.509Z,1.70
2023-04-24T17:52:40.046Z,1.50
2023-04-24T17:55:09.240Z,1.45
2023-04-24T17:57:39.252Z,1.77
2023-04-24T18:00:09.484Z,2.17
2023-04-24T18:02:38.361Z,1.90
2023-04-24T18:05:07.141Z,1.80
2023-04-24T18:07:35.852Z,1.83
2023-04-24T18:10:04.946Z,1.85
2023-04-24T18:12:33.863Z,1.70
2023-04-24T18:15:13.900Z,1.70
2023-04-24T18:17:43.377Z,1.55
2023-04-24T18:20:12.892Z,1.58
2023-04-24T18:22:42.333Z,1.30
2023-04-24T18:25:11.566Z,1.35
2023-04-24T18:27:40.896Z,1.25
2023-04-24T18:30:14.660Z,1.25
2023-04-24T18:32:43.904Z,1.20
2023-04-24T18:35:12.702Z,1.45
2023-04-24T18:37:41.589Z,1.20
2023-04-24T18:40:11.250Z,1.13
2023-04-24T18:42:40.145Z,1.67
2023-04-24T18:45:13.049Z,1.38
2023-04-24T18:47:43.302Z,1.60
2023-04-24T18:50:13.874Z,1.13
2023-04-24T18:52:42.611Z,1.60
2023-04-24T18:55:11.707Z,1.50
2023-04-24T18:57:40.874Z,1.80
2023-04-24T19:00:12.846Z,1.50
2023-04-24T19:02:42.104Z,1.75
2023-04-24T19:05:12.398Z,2.00
2023-04-24T19:07:42.589Z,1.50
2023-04-24T19:10:13.330Z,1.50
2023-04-24T19:12:42.220Z,1.58
2023-04-24T19:15:13.035Z,1.70
2023-04-24T19:17:42.082Z,1.63
2023-04-24T19:20:12.257Z,1.50
2023-04-24T19:22:41.288Z,1.50
2023-04-24T19:25:10.943Z,1.83
2023-04-24T19:27:39.692Z,1.60
2023-04-24T19:30:11.462Z,1.50
2023-04-24T19:32:43.259Z,1.30
2023-04-24T19:35:13.063Z,1.63
2023-04-24T19:37:42.861Z,1.48
2023-04-24T19:40:13.303Z,1.85
2023-04-24T19:42:44.827Z,1.35
2023-04-24T19:45:14.731Z,1.50
2023-04-24T19:47:45.088Z,1.55
2023-04-24T19:50:15.060Z,1.60
2023-04-24T19:52:44.227Z,1.50
2023-04-24T19:55:14.617Z,1.42
2023-04-24T19:57:45.116Z,1.50
2023-04-24T20:00:19.286Z,1.40
2023-04-24T20:02:55.782Z,1.80
2023-04-24T20:05:25.390Z,1.70
2023-04-24T20:07:55.228Z,1.80
2023-04-24T20:10:29.627Z,1.67
2023-04-24T20:12:59.910Z,1.80
2023-04-24T20:15:29.287Z,1.52
2023-04-24T20:18:01.983Z,1.80
2023-04-24T20:20:43.096Z,1.40
2023-04-24T20:23:14.256Z,1.77
2023-04-24T20:25:44.260Z,1.60
2023-04-24T20:28:14.856Z,1.73
2023-04-24T20:30:47.942Z,1.80
2023-04-24T20:33:18.698Z,1.48
2023-04-24T20:35:47.477Z,1.75
2023-04-24T20:38:19.014Z,2.15
2023-04-24T20:40:57.692Z,1.55
2023-04-24T20:43:34.526Z,1.63
2023-04-24T20:46:13.965Z,1.65
2023-04-24T20:48:45.292Z,1.50
2023-04-24T20:51:14.776Z,1.50
2023-04-24T20:53:43.634Z,1.60
2023-04-24T20:56:14.379Z,1.60
2023-04-24T20:58:46.833Z,1.58
2023-04-24T21:01:16.532Z,1.40
2023-04-24T21:03:48.191Z,1.52
2023-04-24T21:06:19.693Z,1.70
2023-04-24T21:08:50.547Z,1.77
2023-04-24T21:11:21.284Z,1.60
2023-04-24T21:13:51.736Z,1.90
2023-04-24T21:16:25.617Z,1.50
2023-04-24T21:18:57.340Z,1.50
2023-04-24T21:21:26.820Z,1.63
2023-04-24T21:23:55.515Z,1.58
2023-04-24T21:26:24.272Z,1.60
2023-04-24T21:28:53.292Z,1.33
2023-04-24T21:31:22.172Z,1.50
2023-04-24T21:33:51.142Z,1.50
2023-04-24T21:36:21.890Z,1.63
2023-04-24T21:38:50.697Z,1.30
2023-04-24T21:41:19.555Z,1.80
2023-04-24T21:43:50.547Z,2.00
2023-04-24T21:46:19.841Z,1.70
2023-04-24T21:48:48.638Z,2.00
2023-04-24T21:51:18.134Z,2.50
2023-04-24T21:53:48.628Z,2.28
2023-04-24T21:56:17.732Z,1.92
2023-04-24T21:58:47.140Z,2.38
2023-04-24T22:01:19.248Z,2.55
2023-04-24T22:03:48.390Z,1.85
2023-04-24T22:06:17.413Z,2.05
2023-04-24T22:08:47.848Z,2.35
2023-04-24T22:11:26.622Z,2.00
2023-04-24T22:13:56.682Z,2.22
2023-04-24T22:16:25.553Z,2.10
2023-04-24T22:18:55.451Z,2.00
2023-04-24T22:21:24.412Z,1.63
2023-04-24T22:23:54.908Z,1.80
2023-04-24T22:26:27.323Z,2.63
2023-04-24T22:28:56.329Z,2.25
2023-04-24T22:31:25.315Z,2.30
2023-04-24T22:33:56.121Z,2.33
2023-04-24T22:36:26.716Z,2.03
2023-04-24T22:38:58.751Z,2.10
2023-04-24T22:41:27.574Z,2.22
2023-04-24T22:43:56.777Z,2.28
2023-04-24T22:46:26.154Z,2.22
2023-04-24T22:48:58.489Z,2.28
2023-04-24T22:51:27.439Z,1.98
2023-04-24T22:53:58.116Z,2.00
2023-04-24T22:56:27.014Z,3.03
2023-04-24T22:58:55.871Z,2.55
2023-04-24T23:01:27.109Z,2.00
2023-04-24T23:03:56.134Z,2.00
2023-04-24T23:06:24.923Z,2.28
2023-04-24T23:08:58.100Z,2.58
2023-04-24T23:11:27.767Z,2.63
2023-04-24T23:13:56.585Z,2.13
2023-04-24T23:16:25.481Z,2.42
2023-04-24T23:18:54.281Z,3.30
2023-04-24T23:21:23.164Z,2.53
2023-04-24T23:23:52.950Z,2.40
2023-04-24T23:26:24.363Z,2.35
2023-04-24T23:28:53.502Z,2.83
2023-04-24T23:31:24.376Z,2.78
2023-04-24T23:33:53.814Z,2.45
2023-04-24T23:36:23.516Z,2.90
2023-04-24T23:38:52.302Z,2.42
2023-04-24T23:41:21.146Z,2.70
2023-04-24T23:43:51.777Z,2.45
2023-04-24T23:46:21.959Z,2.70
2023-04-24T23:48:50.776Z,3.10
2023-04-24T23:51:20.209Z,3.20
2023-04-24T23:53:49.180Z,2.40
2023-04-24T23:56:18.544Z,2.78
2023-04-24T23:58:48.524Z,3.08
